sensor_id;sensor_type;location;lat;lon;timestamp;P1;durP1;ratioP1;P2;durP2;ratioP2
57848;SDS011;68645;44.762;21.516;2023-12-20T00:01:36;179.50;;;103.65;;
57848;SDS011;68645;44.762;21.516;2023-12-20T00:04:02;180.02;;;101.30;;
57848;SDS011;68645;44.762;21.516;2023-12-20T00:06:29;209.20;;;106.30;;
57848;SDS011;68645;44.762;21.516;2023-12-20T00:08:55;220.20;;;120.90;;
57848;SDS011;68645;44.762;21.516;2023-12-20T00:11:23;211.75;;;107.93;;
57848;SDS011;68645;44.762;21.516;2023-12-20T00:13:49;182.30;;;94.15;;
57848;SDS011;68645;44.762;21.516;2023-12-20T00:16:15;179.30;;;90.00;;
57848;SDS011;68645;44.762;21.516;2023-12-20T00:18:41;210.10;;;110.50;;
57848;SDS011;68645;44.762;21.516;2023-12-20T00:21:07;195.00;;;108.63;;
57848;SDS011;68645;44.762;21.516;2023-12-20T00:23:33;198.50;;;104.88;;
57848;SDS011;68645;44.762;21.516;2023-12-20T00:26:00;151.60;;;76.30;;
57848;SDS011;68645;44.762;21.516;2023-12-20T00:28:26;140.52;;;80.35;;
57848;SDS011;68645;44.762;21.516;2023-12-20T00:30:52;135.18;;;78.18;;
57848;SDS011;68645;44.762;21.516;2023-12-20T00:33:18;99.20;;;59.15;;
57848;SDS011;68645;44.762;21.516;2023-12-20T00:35:44;112.63;;;66.78;;
57848;SDS011;68645;44.762;21.516;2023-12-20T00:38:10;113.20;;;71.10;;
57848;SDS011;68645;44.762;21.516;2023-12-20T00:40:37;63.58;;;39.60;;
57848;SDS011;68645;44.762;21.516;2023-12-20T00:43:03;56.85;;;34.88;;
57848;SDS011;68645;44.762;21.516;2023-12-20T00:45:29;135.02;;;67.28;;
57848;SDS011;68645;44.762;21.516;2023-12-20T00:47:55;221.90;;;108.70;;
57848;SDS011;68645;44.762;21.516;2023-12-20T00:50:21;109.43;;;64.72;;
57848;SDS011;68645;44.762;21.516;2023-12-20T00:52:48;152.80;;;76.07;;
57848;SDS011;68645;44.762;21.516;2023-12-20T00:55:14;84.53;;;51.90;;
57848;SDS011;68645;44.762;21.516;2023-12-20T00:57:40;64.78;;;41.95;;
57848;SDS011;68645;44.762;21.516;2023-12-20T01:00:06;79.53;;;47.85;;
57848;SDS011;68645;44.762;21.516;2023-12-20T01:02:34;118.97;;;75.20;;
57848;SDS011;68645;44.762;21.516;2023-12-20T01:05:01;128.18;;;80.40;;
57848;SDS011;68645;44.762;21.516;2023-12-20T01:07:27;111.63;;;73.28;;
57848;SDS011;68645;44.762;21.516;2023-12-20T01:09:54;140.95;;;89.13;;
57848;SDS011;68645;44.762;21.516;2023-12-20T01:12:20;154.88;;;94.22;;
57848;SDS011;68645;44.762;21.516;2023-12-20T01:14:46;229.32;;;150.77;;
57848;SDS011;68645;44.762;21.516;2023-12-20T01:17:12;156.18;;;99.38;;
57848;SDS011;68645;44.762;21.516;2023-12-20T01:19:38;113.78;;;68.80;;
57848;SDS011;68645;44.762;21.516;2023-12-20T01:22:04;153.90;;;97.10;;
57848;SDS011;68645;44.762;21.516;2023-12-20T01:24:30;107.72;;;64.30;;
57848;SDS011;68645;44.762;21.516;2023-12-20T01:26:57;192.50;;;110.40;;
57848;SDS011;68645;44.762;21.516;2023-12-20T01:29:23;174.50;;;102.68;;
57848;SDS011;68645;44.762;21.516;2023-12-20T01:31:49;308.13;;;186.98;;
57848;SDS011;68645;44.762;21.516;2023-12-20T01:34:16;121.55;;;73.85;;
57848;SDS011;68645;44.762;21.516;2023-12-20T01:36:42;79.05;;;47.65;;
57848;SDS011;68645;44.762;21.516;2023-12-20T01:39:08;95.97;;;47.78;;
57848;SDS011;68645;44.762;21.516;2023-12-20T01:41:34;93.97;;;49.20;;
57848;SDS011;68645;44.762;21.516;2023-12-20T01:44:01;83.65;;;47.13;;
57848;SDS011;68645;44.762;21.516;2023-12-20T01:46:27;86.72;;;49.42;;
57848;SDS011;68645;44.762;21.516;2023-12-20T01:48:53;74.47;;;42.72;;
57848;SDS011;68645;44.762;21.516;2023-12-20T01:51:19;67.00;;;41.15;;
57848;SDS011;68645;44.762;21.516;2023-12-20T01:53:46;66.07;;;41.67;;
57848;SDS011;68645;44.762;21.516;2023-12-20T01:56:12;70.85;;;42.33;;
57848;SDS011;68645;44.762;21.516;2023-12-20T01:58:45;61.90;;;38.53;;
57848;SDS011;68645;44.762;21.516;2023-12-20T02:01:12;79.25;;;45.97;;
57848;SDS011;68645;44.762;21.516;2023-12-20T02:03:39;85.53;;;48.22;;
57848;SDS011;68645;44.762;21.516;2023-12-20T02:06:07;72.47;;;45.33;;
57848;SDS011;68645;44.762;21.516;2023-12-20T02:08:33;68.18;;;45.08;;
57848;SDS011;68645;44.762;21.516;2023-12-20T02:10:59;92.43;;;51.42;;
57848;SDS011;68645;44.762;21.516;2023-12-20T02:13:26;111.53;;;55.88;;
57848;SDS011;68645;44.762;21.516;2023-12-20T02:15:52;101.85;;;51.70;;
57848;SDS011;68645;44.762;21.516;2023-12-20T02:18:18;103.90;;;52.10;;
57848;SDS011;68645;44.762;21.516;2023-12-20T02:20:44;92.40;;;51.28;;
57848;SDS011;68645;44.762;21.516;2023-12-20T02:23:10;94.18;;;49.67;;
57848;SDS011;68645;44.762;21.516;2023-12-20T02:25:36;106.28;;;54.30;;
57848;SDS011;68645;44.762;21.516;2023-12-20T02:28:03;112.03;;;56.40;;
57848;SDS011;68645;44.762;21.516;2023-12-20T02:30:29;106.90;;;56.10;;
57848;SDS011;68645;44.762;21.516;2023-12-20T02:32:55;108.20;;;54.65;;
57848;SDS011;68645;44.762;21.516;2023-12-20T02:35:22;102.07;;;53.00;;
57848;SDS011;68645;44.762;21.516;2023-12-20T02:37:48;103.00;;;51.78;;
57848;SDS011;68645;44.762;21.516;2023-12-20T02:40:14;111.07;;;57.40;;
57848;SDS011;68645;44.762;21.516;2023-12-20T02:42:40;156.80;;;76.13;;
57848;SDS011;68645;44.762;21.516;2023-12-20T02:45:07;139.48;;;67.65;;
57848;SDS011;68645;44.762;21.516;2023-12-20T02:47:33;112.63;;;58.67;;
57848;SDS011;68645;44.762;21.516;2023-12-20T02:49:59;105.55;;;58.95;;
57848;SDS011;68645;44.762;21.516;2023-12-20T02:52:25;87.68;;;48.50;;
57848;SDS011;68645;44.762;21.516;2023-12-20T02:54:51;69.10;;;40.70;;
57848;SDS011;68645;44.762;21.516;2023-12-20T02:57:18;96.30;;;53.13;;
57848;SDS011;68645;44.762;21.516;2023-12-20T02:59:44;105.82;;;56.85;;
57848;SDS011;68645;44.762;21.516;2023-12-20T03:02:10;115.85;;;60.60;;
57848;SDS011;68645;44.762;21.516;2023-12-20T03:04:36;93.78;;;52.95;;
57848;SDS011;68645;44.762;21.516;2023-12-20T03:07:02;126.75;;;70.40;;
57848;SDS011;68645;44.762;21.516;2023-12-20T03:09:28;135.68;;;75.38;;
57848;SDS011;68645;44.762;21.516;2023-12-20T03:11:54;241.13;;;136.05;;
57848;SDS011;68645;44.762;21.516;2023-12-20T03:14:21;188.40;;;114.15;;
57848;SDS011;68645;44.762;21.516;2023-12-20T03:16:49;105.05;;;56.35;;
57848;SDS011;68645;44.762;21.516;2023-12-20T03:19:15;145.05;;;79.10;;
57848;SDS011;68645;44.762;21.516;2023-12-20T03:21:41;136.70;;;78.10;;
57848;SDS011;68645;44.762;21.516;2023-12-20T03:24:07;134.30;;;71.25;;
57848;SDS011;68645;44.762;21.516;2023-12-20T03:26:33;124.95;;;67.15;;
57848;SDS011;68645;44.762;21.516;2023-12-20T03:29:00;117.82;;;61.58;;
57848;SDS011;68645;44.762;21.516;2023-12-20T03:31:26;165.32;;;95.10;;
57848;SDS011;68645;44.762;21.516;2023-12-20T03:33:52;107.38;;;64.28;;
57848;SDS011;68645;44.762;21.516;2023-12-20T03:36:19;97.65;;;56.75;;
57848;SDS011;68645;44.762;21.516;2023-12-20T03:38:45;109.40;;;58.38;;
57848;SDS011;68645;44.762;21.516;2023-12-20T03:41:11;125.82;;;66.97;;
57848;SDS011;68645;44.762;21.516;2023-12-20T03:43:37;153.35;;;77.65;;
57848;SDS011;68645;44.762;21.516;2023-12-20T03:46:04;104.55;;;57.00;;
57848;SDS011;68645;44.762;21.516;2023-12-20T03:48:30;104.82;;;54.53;;
57848;SDS011;68645;44.762;21.516;2023-12-20T03:50:57;88.80;;;48.63;;
57848;SDS011;68645;44.762;21.516;2023-12-20T03:53:23;91.32;;;50.35;;
57848;SDS011;68645;44.762;21.516;2023-12-20T03:55:49;88.63;;;49.67;;
57848;SDS011;68645;44.762;21.516;2023-12-20T03:58:15;82.80;;;48.20;;
57848;SDS011;68645;44.762;21.516;2023-12-20T04:00:41;89.88;;;52.85;;
57848;SDS011;68645;44.762;21.516;2023-12-20T04:03:07;81.00;;;47.65;;
57848;SDS011;68645;44.762;21.516;2023-12-20T04:05:33;93.55;;;52.53;;
57848;SDS011;68645;44.762;21.516;2023-12-20T04:08:01;87.40;;;51.35;;
57848;SDS011;68645;44.762;21.516;2023-12-20T04:10:27;94.45;;;50.30;;
57848;SDS011;68645;44.762;21.516;2023-12-20T04:12:53;81.47;;;43.50;;
57848;SDS011;68645;44.762;21.516;2023-12-20T04:15:20;75.55;;;47.45;;
57848;SDS011;68645;44.762;21.516;2023-12-20T04:17:46;181.77;;;85.05;;
57848;SDS011;68645;44.762;21.516;2023-12-20T04:20:12;107.93;;;56.65;;
57848;SDS011;68645;44.762;21.516;2023-12-20T04:22:38;86.57;;;51.58;;
57848;SDS011;68645;44.762;21.516;2023-12-20T04:25:05;102.95;;;53.72;;
57848;SDS011;68645;44.762;21.516;2023-12-20T04:27:31;107.28;;;59.58;;
57848;SDS011;68645;44.762;21.516;2023-12-20T04:29:57;103.53;;;60.63;;
57848;SDS011;68645;44.762;21.516;2023-12-20T04:32:23;226.85;;;136.85;;
57848;SDS011;68645;44.762;21.516;2023-12-20T04:34:50;110.75;;;60.55;;
57848;SDS011;68645;44.762;21.516;2023-12-20T04:37:16;96.03;;;55.17;;
57848;SDS011;68645;44.762;21.516;2023-12-20T04:39:42;92.90;;;50.58;;
57848;SDS011;68645;44.762;21.516;2023-12-20T04:42:08;81.88;;;47.42;;
57848;SDS011;68645;44.762;21.516;2023-12-20T04:44:34;124.00;;;65.82;;
57848;SDS011;68645;44.762;21.516;2023-12-20T04:47:00;77.47;;;40.25;;
57848;SDS011;68645;44.762;21.516;2023-12-20T04:49:27;74.55;;;39.53;;
57848;SDS011;68645;44.762;21.516;2023-12-20T04:51:53;70.22;;;37.67;;
57848;SDS011;68645;44.762;21.516;2023-12-20T04:54:19;72.85;;;39.88;;
57848;SDS011;68645;44.762;21.516;2023-12-20T04:56:45;63.80;;;37.40;;
57848;SDS011;68645;44.762;21.516;2023-12-20T04:59:12;65.32;;;38.42;;
57848;SDS011;68645;44.762;21.516;2023-12-20T05:01:38;62.70;;;36.30;;
57848;SDS011;68645;44.762;21.516;2023-12-20T05:04:04;54.25;;;31.77;;
57848;SDS011;68645;44.762;21.516;2023-12-20T05:06:31;49.67;;;29.00;;
57848;SDS011;68645;44.762;21.516;2023-12-20T05:08:57;40.25;;;25.52;;
57848;SDS011;68645;44.762;21.516;2023-12-20T05:11:23;50.55;;;27.38;;
57848;SDS011;68645;44.762;21.516;2023-12-20T05:13:49;45.42;;;26.00;;
57848;SDS011;68645;44.762;21.516;2023-12-20T05:16:15;37.88;;;22.38;;
57848;SDS011;68645;44.762;21.516;2023-12-20T05:18:43;45.25;;;25.75;;
57848;SDS011;68645;44.762;21.516;2023-12-20T05:21:09;46.75;;;27.35;;
57848;SDS011;68645;44.762;21.516;2023-12-20T05:23:36;50.65;;;29.77;;
57848;SDS011;68645;44.762;21.516;2023-12-20T05:26:02;108.60;;;69.88;;
57848;SDS011;68645;44.762;21.516;2023-12-20T05:28:28;66.05;;;39.83;;
57848;SDS011;68645;44.762;21.516;2023-12-20T05:30:54;64.35;;;37.35;;
57848;SDS011;68645;44.762;21.516;2023-12-20T05:33:20;49.63;;;30.70;;
57848;SDS011;68645;44.762;21.516;2023-12-20T05:35:46;45.67;;;27.08;;
57848;SDS011;68645;44.762;21.516;2023-12-20T05:38:13;42.65;;;26.17;;
57848;SDS011;68645;44.762;21.516;2023-12-20T05:40:39;41.72;;;22.48;;
57848;SDS011;68645;44.762;21.516;2023-12-20T05:43:05;35.47;;;23.45;;
57848;SDS011;68645;44.762;21.516;2023-12-20T05:45:31;44.15;;;26.02;;
57848;SDS011;68645;44.762;21.516;2023-12-20T05:47:57;49.78;;;26.05;;
57848;SDS011;68645;44.762;21.516;2023-12-20T05:50:24;53.75;;;29.20;;
57848;SDS011;68645;44.762;21.516;2023-12-20T05:52:50;59.83;;;30.40;;
57848;SDS011;68645;44.762;21.516;2023-12-20T05:55:16;53.78;;;29.38;;
57848;SDS011;68645;44.762;21.516;2023-12-20T05:57:43;39.40;;;22.85;;
57848;SDS011;68645;44.762;21.516;2023-12-20T06:00:09;42.53;;;22.25;;
57848;SDS011;68645;44.762;21.516;2023-12-20T06:02:35;37.60;;;20.90;;
57848;SDS011;68645;44.762;21.516;2023-12-20T06:05:05;33.70;;;20.60;;
57848;SDS011;68645;44.762;21.516;2023-12-20T06:07:31;37.45;;;21.50;;
57848;SDS011;68645;44.762;21.516;2023-12-20T06:09:57;35.40;;;21.23;;
57848;SDS011;68645;44.762;21.516;2023-12-20T06:12:24;34.50;;;20.75;;
57848;SDS011;68645;44.762;21.516;2023-12-20T06:14:51;66.10;;;33.38;;
57848;SDS011;68645;44.762;21.516;2023-12-20T06:17:18;79.47;;;39.45;;
57848;SDS011;68645;44.762;21.516;2023-12-20T06:19:44;127.75;;;60.72;;
57848;SDS011;68645;44.762;21.516;2023-12-20T06:22:13;90.93;;;47.55;;
57848;SDS011;68645;44.762;21.516;2023-12-20T06:24:39;95.22;;;45.78;;
57848;SDS011;68645;44.762;21.516;2023-12-20T06:27:05;83.43;;;43.75;;
57848;SDS011;68645;44.762;21.516;2023-12-20T06:29:31;74.78;;;43.20;;
57848;SDS011;68645;44.762;21.516;2023-12-20T06:31:59;79.25;;;45.20;;
57848;SDS011;68645;44.762;21.516;2023-12-20T06:34:26;71.57;;;42.50;;
57848;SDS011;68645;44.762;21.516;2023-12-20T06:36:52;70.63;;;40.40;;
57848;SDS011;68645;44.762;21.516;2023-12-20T06:39:18;75.15;;;40.90;;
57848;SDS011;68645;44.762;21.516;2023-12-20T06:41:44;54.92;;;29.30;;
57848;SDS011;68645;44.762;21.516;2023-12-20T06:44:10;54.15;;;27.08;;
57848;SDS011;68645;44.762;21.516;2023-12-20T06:46:36;75.20;;;35.95;;
57848;SDS011;68645;44.762;21.516;2023-12-20T06:49:02;80.82;;;40.67;;
57848;SDS011;68645;44.762;21.516;2023-12-20T06:51:28;78.72;;;45.78;;
57848;SDS011;68645;44.762;21.516;2023-12-20T06:53:56;88.32;;;47.90;;
57848;SDS011;68645;44.762;21.516;2023-12-20T06:56:22;63.88;;;33.72;;
57848;SDS011;68645;44.762;21.516;2023-12-20T06:58:48;65.47;;;34.95;;
57848;SDS011;68645;44.762;21.516;2023-12-20T07:01:15;73.20;;;43.70;;
57848;SDS011;68645;44.762;21.516;2023-12-20T07:03:41;109.50;;;70.35;;
57848;SDS011;68645;44.762;21.516;2023-12-20T07:06:08;75.25;;;47.28;;
57848;SDS011;68645;44.762;21.516;2023-12-20T07:08:34;70.00;;;40.72;;
57848;SDS011;68645;44.762;21.516;2023-12-20T07:11:00;64.00;;;36.97;;
57848;SDS011;68645;44.762;21.516;2023-12-20T07:13:26;63.47;;;34.00;;
57848;SDS011;68645;44.762;21.516;2023-12-20T07:15:52;59.92;;;33.60;;
57848;SDS011;68645;44.762;21.516;2023-12-20T07:18:19;66.03;;;40.28;;
57848;SDS011;68645;44.762;21.516;2023-12-20T07:20:45;65.35;;;41.40;;
57848;SDS011;68645;44.762;21.516;2023-12-20T07:23:11;67.97;;;41.55;;
57848;SDS011;68645;44.762;21.516;2023-12-20T07:25:37;74.05;;;44.90;;
57848;SDS011;68645;44.762;21.516;2023-12-20T07:28:03;74.85;;;47.47;;
57848;SDS011;68645;44.762;21.516;2023-12-20T07:30:30;75.13;;;47.22;;
57848;SDS011;68645;44.762;21.516;2023-12-20T07:32:56;72.18;;;45.03;;
57848;SDS011;68645;44.762;21.516;2023-12-20T07:35:23;77.63;;;47.47;;
57848;SDS011;68645;44.762;21.516;2023-12-20T07:37:50;88.13;;;56.30;;
57848;SDS011;68645;44.762;21.516;2023-12-20T07:40:16;107.22;;;67.45;;
57848;SDS011;68645;44.762;21.516;2023-12-20T07:42:42;118.90;;;77.35;;
57848;SDS011;68645;44.762;21.516;2023-12-20T07:45:09;129.88;;;86.45;;
57848;SDS011;68645;44.762;21.516;2023-12-20T07:47:36;130.50;;;85.13;;
57848;SDS011;68645;44.762;21.516;2023-12-20T07:50:02;111.45;;;73.57;;
57848;SDS011;68645;44.762;21.516;2023-12-20T07:52:29;94.13;;;57.70;;
57848;SDS011;68645;44.762;21.516;2023-12-20T07:54:55;65.18;;;41.20;;
57848;SDS011;68645;44.762;21.516;2023-12-20T07:57:21;85.50;;;59.55;;
57848;SDS011;68645;44.762;21.516;2023-12-20T07:59:47;77.07;;;52.72;;
57848;SDS011;68645;44.762;21.516;2023-12-20T08:02:14;66.85;;;44.75;;
57848;SDS011;68645;44.762;21.516;2023-12-20T08:04:40;84.38;;;53.78;;
57848;SDS011;68645;44.762;21.516;2023-12-20T08:07:06;83.25;;;52.15;;
57848;SDS011;68645;44.762;21.516;2023-12-20T08:09:32;66.10;;;39.17;;
57848;SDS011;68645;44.762;21.516;2023-12-20T08:12:01;71.60;;;46.83;;
57848;SDS011;68645;44.762;21.516;2023-12-20T08:14:28;83.57;;;52.45;;
57848;SDS011;68645;44.762;21.516;2023-12-20T08:16:54;65.43;;;40.70;;
57848;SDS011;68645;44.762;21.516;2023-12-20T08:19:20;79.82;;;53.13;;
57848;SDS011;68645;44.762;21.516;2023-12-20T08:21:46;85.07;;;53.58;;
57848;SDS011;68645;44.762;21.516;2023-12-20T08:24:12;80.07;;;52.65;;
57848;SDS011;68645;44.762;21.516;2023-12-20T08:26:38;82.03;;;53.58;;
57848;SDS011;68645;44.762;21.516;2023-12-20T08:29:04;78.43;;;51.67;;
57848;SDS011;68645;44.762;21.516;2023-12-20T08:31:30;75.85;;;49.45;;
57848;SDS011;68645;44.762;21.516;2023-12-20T08:33:56;74.28;;;46.53;;
57848;SDS011;68645;44.762;21.516;2023-12-20T08:36:23;81.22;;;50.10;;
57848;SDS011;68645;44.762;21.516;2023-12-20T08:38:49;86.60;;;56.17;;
57848;SDS011;68645;44.762;21.516;2023-12-20T08:41:16;86.30;;;54.20;;
57848;SDS011;68645;44.762;21.516;2023-12-20T08:43:42;84.97;;;51.75;;
57848;SDS011;68645;44.762;21.516;2023-12-20T08:46:09;83.30;;;55.28;;
57848;SDS011;68645;44.762;21.516;2023-12-20T08:48:35;50.75;;;30.33;;
57848;SDS011;68645;44.762;21.516;2023-12-20T08:51:02;73.57;;;40.08;;
57848;SDS011;68645;44.762;21.516;2023-12-20T08:53:28;44.63;;;27.33;;
57848;SDS011;68645;44.762;21.516;2023-12-20T08:55:55;39.83;;;25.45;;
57848;SDS011;68645;44.762;21.516;2023-12-20T08:58:23;59.58;;;41.30;;
57848;SDS011;68645;44.762;21.516;2023-12-20T09:00:49;56.47;;;33.65;;
57848;SDS011;68645;44.762;21.516;2023-12-20T09:03:15;81.18;;;53.30;;
57848;SDS011;68645;44.762;21.516;2023-12-20T09:05:41;52.33;;;34.35;;
57848;SDS011;68645;44.762;21.516;2023-12-20T09:08:07;35.78;;;25.15;;
57848;SDS011;68645;44.762;21.516;2023-12-20T09:10:35;41.38;;;26.10;;
57848;SDS011;68645;44.762;21.516;2023-12-20T09:13:01;57.22;;;34.33;;
57848;SDS011;68645;44.762;21.516;2023-12-20T09:15:27;43.25;;;22.95;;
57848;SDS011;68645;44.762;21.516;2023-12-20T09:17:55;61.35;;;35.17;;
57848;SDS011;68645;44.762;21.516;2023-12-20T09:20:21;35.85;;;22.02;;
57848;SDS011;68645;44.762;21.516;2023-12-20T09:22:48;36.83;;;21.85;;
57848;SDS011;68645;44.762;21.516;2023-12-20T09:25:14;38.25;;;24.50;;
57848;SDS011;68645;44.762;21.516;2023-12-20T09:27:42;40.67;;;26.40;;
57848;SDS011;68645;44.762;21.516;2023-12-20T09:30:09;44.88;;;27.30;;
57848;SDS011;68645;44.762;21.516;2023-12-20T09:32:35;42.03;;;26.38;;
57848;SDS011;68645;44.762;21.516;2023-12-20T09:35:01;36.17;;;22.65;;
57848;SDS011;68645;44.762;21.516;2023-12-20T09:37:28;43.03;;;28.08;;
57848;SDS011;68645;44.762;21.516;2023-12-20T09:39:54;33.20;;;22.10;;
57848;SDS011;68645;44.762;21.516;2023-12-20T09:42:45;35.05;;;23.33;;
57848;SDS011;68645;44.762;21.516;2023-12-20T09:45:08;35.40;;;21.67;;
57848;SDS011;68645;44.762;21.516;2023-12-20T09:47:35;37.63;;;24.55;;
57848;SDS011;68645;44.762;21.516;2023-12-20T09:50:02;38.67;;;25.58;;
57848;SDS011;68645;44.762;21.516;2023-12-20T09:52:29;38.28;;;24.83;;
57848;SDS011;68645;44.762;21.516;2023-12-20T09:54:55;33.45;;;24.60;;
57848;SDS011;68645;44.762;21.516;2023-12-20T09:57:22;42.00;;;26.73;;
57848;SDS011;68645;44.762;21.516;2023-12-20T09:59:48;48.83;;;33.03;;
57848;SDS011;68645;44.762;21.516;2023-12-20T10:02:14;55.90;;;37.42;;
57848;SDS011;68645;44.762;21.516;2023-12-20T10:04:44;53.45;;;35.25;;
57848;SDS011;68645;44.762;21.516;2023-12-20T10:07:12;55.90;;;36.73;;
57848;SDS011;68645;44.762;21.516;2023-12-20T10:09:39;47.53;;;33.58;;
57848;SDS011;68645;44.762;21.516;2023-12-20T10:12:05;54.80;;;33.45;;
57848;SDS011;68645;44.762;21.516;2023-12-20T10:14:32;51.22;;;32.22;;
57848;SDS011;68645;44.762;21.516;2023-12-20T10:17:02;50.40;;;32.83;;
57848;SDS011;68645;44.762;21.516;2023-12-20T10:19:28;51.30;;;33.45;;
57848;SDS011;68645;44.762;21.516;2023-12-20T10:21:54;48.22;;;32.67;;
57848;SDS011;68645;44.762;21.516;2023-12-20T10:24:20;51.28;;;32.55;;
57848;SDS011;68645;44.762;21.516;2023-12-20T10:26:46;105.60;;;62.15;;
57848;SDS011;68645;44.762;21.516;2023-12-20T10:29:12;110.63;;;70.28;;
57848;SDS011;68645;44.762;21.516;2023-12-20T10:31:39;110.18;;;64.97;;
57848;SDS011;68645;44.762;21.516;2023-12-20T10:34:05;89.47;;;53.13;;
57848;SDS011;68645;44.762;21.516;2023-12-20T10:36:31;90.20;;;50.00;;
57848;SDS011;68645;44.762;21.516;2023-12-20T10:38:59;82.78;;;46.10;;
57848;SDS011;68645;44.762;21.516;2023-12-20T10:41:27;70.95;;;42.13;;
57848;SDS011;68645;44.762;21.516;2023-12-20T10:44:00;52.92;;;30.88;;
57848;SDS011;68645;44.762;21.516;2023-12-20T10:46:28;50.53;;;32.75;;
57848;SDS011;68645;44.762;21.516;2023-12-20T10:48:55;46.15;;;30.27;;
57848;SDS011;68645;44.762;21.516;2023-12-20T10:51:22;43.63;;;30.83;;
57848;SDS011;68645;44.762;21.516;2023-12-20T10:53:49;49.20;;;33.28;;
57848;SDS011;68645;44.762;21.516;2023-12-20T10:56:16;39.67;;;26.60;;
57848;SDS011;68645;44.762;21.516;2023-12-20T10:58:46;35.55;;;23.67;;
57848;SDS011;68645;44.762;21.516;2023-12-20T11:01:13;45.38;;;27.27;;
57848;SDS011;68645;44.762;21.516;2023-12-20T11:03:42;49.83;;;30.27;;
57848;SDS011;68645;44.762;21.516;2023-12-20T11:06:11;50.20;;;28.65;;
57848;SDS011;68645;44.762;21.516;2023-12-20T11:08:44;49.97;;;30.77;;
57848;SDS011;68645;44.762;21.516;2023-12-20T11:11:14;42.25;;;27.80;;
57848;SDS011;68645;44.762;21.516;2023-12-20T11:13:43;42.35;;;26.15;;
57848;SDS011;68645;44.762;21.516;2023-12-20T11:16:14;43.92;;;28.85;;
57848;SDS011;68645;44.762;21.516;2023-12-20T11:18:40;43.03;;;26.83;;
57848;SDS011;68645;44.762;21.516;2023-12-20T11:21:07;40.50;;;26.67;;
57848;SDS011;68645;44.762;21.516;2023-12-20T11:23:33;37.60;;;26.65;;
57848;SDS011;68645;44.762;21.516;2023-12-20T11:26:00;47.03;;;30.70;;
57848;SDS011;68645;44.762;21.516;2023-12-20T11:28:27;53.95;;;33.78;;
57848;SDS011;68645;44.762;21.516;2023-12-20T11:30:55;66.10;;;39.75;;
57848;SDS011;68645;44.762;21.516;2023-12-20T11:33:45;61.83;;;40.30;;
57848;SDS011;68645;44.762;21.516;2023-12-20T11:36:18;68.65;;;40.05;;
57848;SDS011;68645;44.762;21.516;2023-12-20T11:38:57;77.53;;;50.03;;
57848;SDS011;68645;44.762;21.516;2023-12-20T11:41:25;84.82;;;55.90;;
57848;SDS011;68645;44.762;21.516;2023-12-20T11:43:54;93.22;;;59.35;;
57848;SDS011;68645;44.762;21.516;2023-12-20T11:46:21;74.97;;;47.85;;
57848;SDS011;68645;44.762;21.516;2023-12-20T11:48:47;96.55;;;61.25;;
57848;SDS011;68645;44.762;21.516;2023-12-20T11:51:13;83.60;;;55.05;;
57848;SDS011;68645;44.762;21.516;2023-12-20T11:53:40;87.97;;;55.38;;
57848;SDS011;68645;44.762;21.516;2023-12-20T11:56:09;103.18;;;65.18;;
57848;SDS011;68645;44.762;21.516;2023-12-20T11:58:36;103.97;;;65.43;;
57848;SDS011;68645;44.762;21.516;2023-12-20T12:01:02;125.75;;;76.65;;
57848;SDS011;68645;44.762;21.516;2023-12-20T12:03:29;149.10;;;93.60;;
57848;SDS011;68645;44.762;21.516;2023-12-20T12:05:55;158.52;;;99.25;;
57848;SDS011;68645;44.762;21.516;2023-12-20T12:08:22;142.07;;;92.30;;
57848;SDS011;68645;44.762;21.516;2023-12-20T12:10:49;143.75;;;76.80;;
57848;SDS011;68645;44.762;21.516;2023-12-20T12:13:15;79.43;;;47.63;;
57848;SDS011;68645;44.762;21.516;2023-12-20T12:15:41;72.43;;;47.85;;
57848;SDS011;68645;44.762;21.516;2023-12-20T12:18:08;83.22;;;51.53;;
57848;SDS011;68645;44.762;21.516;2023-12-20T12:20:35;58.30;;;37.85;;
57848;SDS011;68645;44.762;21.516;2023-12-20T12:23:02;50.00;;;34.30;;
57848;SDS011;68645;44.762;21.516;2023-12-20T12:25:29;48.38;;;33.17;;
57848;SDS011;68645;44.762;21.516;2023-12-20T12:27:59;45.13;;;31.13;;
57848;SDS011;68645;44.762;21.516;2023-12-20T12:30:25;45.80;;;29.40;;
57848;SDS011;68645;44.762;21.516;2023-12-20T12:32:52;43.90;;;29.95;;
57848;SDS011;68645;44.762;21.516;2023-12-20T12:35:18;47.30;;;32.75;;
57848;SDS011;68645;44.762;21.516;2023-12-20T12:37:45;52.25;;;35.00;;
57848;SDS011;68645;44.762;21.516;2023-12-20T12:40:14;64.20;;;37.60;;
57848;SDS011;68645;44.762;21.516;2023-12-20T12:42:41;36.40;;;23.40;;
57848;SDS011;68645;44.762;21.516;2023-12-20T12:45:08;60.22;;;37.80;;
57848;SDS011;68645;44.762;21.516;2023-12-20T12:47:35;51.78;;;31.58;;
57848;SDS011;68645;44.762;21.516;2023-12-20T12:50:01;53.83;;;34.28;;
57848;SDS011;68645;44.762;21.516;2023-12-20T12:52:27;63.05;;;38.60;;
57848;SDS011;68645;44.762;21.516;2023-12-20T12:54:53;58.58;;;36.97;;
57848;SDS011;68645;44.762;21.516;2023-12-20T12:57:20;44.70;;;27.98;;
57848;SDS011;68645;44.762;21.516;2023-12-20T12:59:46;35.60;;;22.80;;
57848;SDS011;68645;44.762;21.516;2023-12-20T13:02:12;47.30;;;26.33;;
57848;SDS011;68645;44.762;21.516;2023-12-20T13:04:39;48.67;;;28.80;;
57848;SDS011;68645;44.762;21.516;2023-12-20T13:07:06;60.25;;;35.65;;
57848;SDS011;68645;44.762;21.516;2023-12-20T13:09:32;80.25;;;46.58;;
57848;SDS011;68645;44.762;21.516;2023-12-20T13:11:58;75.38;;;44.13;;
57848;SDS011;68645;44.762;21.516;2023-12-20T13:14:27;67.20;;;39.55;;
57848;SDS011;68645;44.762;21.516;2023-12-20T13:16:54;60.15;;;38.17;;
57848;SDS011;68645;44.762;21.516;2023-12-20T13:19:21;86.18;;;48.40;;
57848;SDS011;68645;44.762;21.516;2023-12-20T13:21:47;86.93;;;49.47;;
57848;SDS011;68645;44.762;21.516;2023-12-20T13:24:13;94.75;;;54.60;;
57848;SDS011;68645;44.762;21.516;2023-12-20T13:26:39;95.00;;;56.85;;
57848;SDS011;68645;44.762;21.516;2023-12-20T13:29:06;102.53;;;63.00;;
57848;SDS011;68645;44.762;21.516;2023-12-20T13:31:32;92.63;;;60.55;;
57848;SDS011;68645;44.762;21.516;2023-12-20T13:33:58;100.88;;;64.15;;
57848;SDS011;68645;44.762;21.516;2023-12-20T13:36:25;94.47;;;55.22;;
57848;SDS011;68645;44.762;21.516;2023-12-20T13:38:51;81.93;;;51.95;;
57848;SDS011;68645;44.762;21.516;2023-12-20T13:41:18;86.32;;;52.00;;
57848;SDS011;68645;44.762;21.516;2023-12-20T13:43:44;88.95;;;53.35;;
57848;SDS011;68645;44.762;21.516;2023-12-20T13:46:10;91.15;;;58.30;;
57848;SDS011;68645;44.762;21.516;2023-12-20T13:48:37;116.80;;;67.20;;
57848;SDS011;68645;44.762;21.516;2023-12-20T13:51:04;113.65;;;68.03;;
57848;SDS011;68645;44.762;21.516;2023-12-20T13:53:31;104.35;;;65.18;;
57848;SDS011;68645;44.762;21.516;2023-12-20T13:55:57;130.65;;;76.68;;
57848;SDS011;68645;44.762;21.516;2023-12-20T13:58:23;130.55;;;81.03;;
57848;SDS011;68645;44.762;21.516;2023-12-20T14:00:49;193.63;;;114.13;;